Time;durP1;ratioP1;P1;durP2;ratioP2;P2;SDS_P1;SDS_P2;PMS_P1;PMS_P2;Temp;Humidity;BMP_temperature;BMP_pressure;BME280_temperature;BME280_humidity;BME280_pressure;Samples;Min_cycle;Max_cycle;Signal;HPM_P1;HPM_P2
2022/07/04 00:00:39;;;;;;;0.10;0.10;;;12.90;99.90;;;;;;5074777;28;20060;-69
2022/07/04 00:03:05;;;;;;;0.28;0.28;;;13.00;99.90;;;;;;5074965;28;20044;-69
2022/07/04 00:05:31;;;;;;;0.98;0.30;;;13.00;99.90;;;;;;5071905;28;20135;-69
2022/07/04 00:07:57;;;;;;;0.35;0.30;;;12.50;99.90;;;;;;5072597;28;20043;-69
2022/07/04 00:10:23;;;;;;;0.85;0.20;;;13.00;99.90;;;;;;5089440;28;20040;-69
2022/07/04 00:12:49;;;;;;;0.30;0.28;;;12.80;99.90;;;;;;5085218;28;20032;-69
2022/07/04 00:15:15;;;;;;;0.10;0.10;;;12.70;99.90;;;;;;5088504;28;20108;-69
2022/07/04 00:17:41;;;;;;;0.20;0.17;;;13.00;99.90;;;;;;5086702;28;20109;-69
2022/07/04 00:20:09;;;;;;;0.20;0.20;;;13.00;99.90;;;;;;5087100;28;20063;-69
2022/07/04 00:22:34;;;;;;;0.32;0.28;;;12.40;99.90;;;;;;5067688;28;20054;-69
2022/07/04 00:25:01;;;;;;;0.20;0.20;;;12.50;99.90;;;;;;5083905;28;20551;-69
2022/07/04 00:27:27;;;;;;;0.90;0.40;;;12.90;99.90;;;;;;5088485;28;20040;-69
2022/07/04 00:29:52;;;;;;;0.75;0.40;;;12.70;99.90;;;;;;5087767;28;20098;-69
2022/07/04 00:32:18;;;;;;;0.55;0.30;;;12.30;99.90;;;;;;5069453;28;20688;-69
2022/07/04 00:34:44;;;;;;;0.70;0.45;;;12.80;99.90;;;;;;5060287;28;20802;-69
2022/07/04 00:37:10;;;;;;;0.57;0.40;;;13.10;99.90;;;;;;5080636;28;20028;-69
2022/07/04 00:39:36;;;;;;;0.55;0.30;;;12.80;99.90;;;;;;5081213;28;20051;-69
2022/07/04 00:42:02;;;;;;;0.30;0.20;;;13.20;99.90;;;;;;5088145;28;20047;-69
2022/07/04 00:44:29;;;;;;;0.25;0.25;;;12.30;99.90;;;;;;5086879;28;20443;-69
2022/07/04 00:46:55;;;;;;;0.40;0.30;;;13.00;99.90;;;;;;5098985;28;20120;-69
2022/07/04 00:49:20;;;;;;;0.63;0.20;;;12.20;99.90;;;;;;5088661;28;20119;-69
2022/07/04 00:51:47;;;;;;;0.30;0.20;;;12.60;99.90;;;;;;5083410;28;20036;-69
2022/07/04 00:54:15;;;;;;;0.22;0.22;;;12.40;99.90;;;;;;5088430;28;20658;-69
2022/07/04 00:56:42;;;;;;;0.30;0.30;;;12.90;99.90;;;;;;5088765;28;20428;-69
2022/07/04 00:59:08;;;;;;;0.20;0.20;;;12.30;99.90;;;;;;5085095;28;20044;-69
2022/07/04 01:01:35;;;;;;;0.20;0.20;;;12.00;99.90;;;;;;5084555;28;20101;-69
2022/07/04 01:04:05;;;;;;;0.20;0.20;;;12.20;99.90;;;;;;5087016;28;20048;-69
2022/07/04 01:06:32;;;;;;;0.20;0.20;;;11.90;99.90;;;;;;5056751;28;20052;-69
2022/07/04 01:08:59;;;;;;;0.40;0.40;;;12.70;99.90;;;;;;5066553;28;20076;-69
2022/07/04 01:11:24;;;;;;;0.20;0.20;;;12.60;99.90;;;;;;5069268;28;20552;-69
2022/07/04 01:13:50;;;;;;;0.40;0.17;;;12.20;99.90;;;;;;5052282;28;20037;-69
2022/07/04 01:16:16;;;;;;;0.20;0.20;;;12.70;99.90;;;;;;5063364;28;20068;-69
2022/07/04 01:18:42;;;;;;;0.45;0.20;;;12.60;99.90;;;;;;5051158;28;21689;-69
2022/07/04 01:21:08;;;;;;;0.20;0.20;;;12.60;99.90;;;;;;5070731;28;20055;-69
2022/07/04 01:23:38;;;;;;;0.20;0.20;;;11.70;99.90;;;;;;5068440;28;20048;-69
2022/07/04 01:26:04;;;;;;;0.30;0.20;;;12.70;99.90;;;;;;5069126;28;20170;-69
2022/07/04 01:28:30;;;;;;;0.55;0.20;;;11.90;99.90;;;;;;5067684;28;20575;-69
2022/07/04 01:30:56;;;;;;;0.20;0.20;;;12.50;99.90;;;;;;5068559;28;20041;-69
2022/07/04 01:33:21;;;;;;;0.20;0.20;;;12.00;99.90;;;;;;5059847;28;20048;-69
2022/07/04 01:35:47;;;;;;;0.22;0.20;;;12.70;99.90;;;;;;5067135;28;20036;-69
2022/07/04 01:38:13;;;;;;;0.20;0.20;;;12.60;99.90;;;;;;5067300;28;20048;-69
2022/07/04 01:40:39;;;;;;;0.20;0.20;;;12.10;99.90;;;;;;5059679;28;20171;-69
2022/07/04 01:43:05;;;;;;;0.22;0.20;;;11.80;99.90;;;;;;5053730;28;20124;-69
2022/07/04 01:45:34;;;;;;;0.30;0.20;;;12.60;99.90;;;;;;5052825;28;20137;-69
2022/07/04 01:48:00;;;;;;;0.20;0.20;;;11.70;99.90;;;;;;5067932;28;20393;-69
2022/07/04 01:50:26;;;;;;;0.20;0.20;;;12.50;99.90;;;;;;5060879;28;20041;-69
2022/07/04 01:52:52;;;;;;;0.30;0.30;;;11.60;99.90;;;;;;5063841;28;20043;-69
2022/07/04 01:55:18;;;;;;;0.20;0.20;;;12.00;99.90;;;;;;5068100;28;20040;-69
2022/07/04 01:57:43;;;;;;;0.20;0.20;;;12.40;99.90;;;;;;5070707;28;20518;-69
2022/07/04 02:02:57;;;;;;;0.22;0.22;;;12.60;99.90;;;;;;5062865;28;20124;-69
2022/07/04 02:05:24;;;;;;;0.40;0.30;;;12.60;99.90;;;;;;5072858;28;20641;-69
2022/07/04 02:07:50;;;;;;;0.20;0.20;;;11.70;99.90;;;;;;5091349;28;20035;-69
2022/07/04 02:10:17;;;;;;;0.20;0.20;;;11.90;99.90;;;;;;5083084;28;20035;-69
2022/07/04 02:13:01;;;;;;;0.20;0.20;;;11.80;99.90;;;;;;5088060;28;20044;-69
2022/07/04 02:15:32;;;;;;;0.20;0.20;;;12.50;99.90;;;;;;5083406;28;20127;-69
2022/07/04 02:17:59;;;;;;;0.20;0.20;;;11.70;99.90;;;;;;5089333;28;20058;-69
2022/07/04 02:20:25;;;;;;;0.20;0.20;;;12.40;99.90;;;;;;5090613;28;20048;-69
2022/07/04 02:22:51;;;;;;;0.30;0.25;;;11.70;99.90;;;;;;5090334;28;20040;-69
2022/07/04 02:25:17;;;;;;;0.30;0.20;;;11.80;99.90;;;;;;5093108;28;20039;-69
2022/07/04 02:27:42;;;;;;;0.30;0.30;;;11.60;99.90;;;;;;5069191;28;20036;-69
2022/07/04 02:30:08;;;;;;;0.30;0.20;;;12.10;99.90;;;;;;5090046;28;20118;-69
2022/07/04 02:32:35;;;;;;;0.30;0.30;;;11.90;99.90;;;;;;5088612;28;20039;-69
2022/07/04 02:35:01;;;;;;;0.20;0.20;;;11.80;99.90;;;;;;5064477;28;20414;-69
2022/07/04 02:37:27;;;;;;;0.20;0.10;;;11.80;99.90;;;;;;5074688;28;20036;-69
2022/07/04 02:39:53;;;;;;;0.47;0.30;;;11.90;99.90;;;;;;5069362;28;20472;-69
2022/07/04 02:42:19;;;;;;;0.50;0.40;;;11.70;99.90;;;;;;5089863;28;20051;-69
2022/07/04 02:44:45;;;;;;;0.47;0.30;;;12.10;99.90;;;;;;5091202;28;20036;-69
2022/07/04 02:47:11;;;;;;;0.20;0.20;;;11.60;99.90;;;;;;5089273;28;20040;-69
2022/07/04 02:49:37;;;;;;;0.30;0.30;;;12.40;99.90;;;;;;5069503;28;20154;-69
2022/07/04 02:52:02;;;;;;;0.25;0.25;;;11.40;99.90;;;;;;5090521;28;20488;-69
2022/07/04 02:54:28;;;;;;;0.20;0.20;;;11.90;99.90;;;;;;5089799;28;20052;-69
2022/07/04 02:56:54;;;;;;;0.20;0.20;;;11.60;99.90;;;;;;5091019;28;20044;-69
2022/07/04 02:59:19;;;;;;;0.20;0.20;;;11.30;99.90;;;;;;5091672;28;20043;-69
2022/07/04 03:01:45;;;;;;;1.85;0.47;;;12.40;99.90;;;;;;5090203;28;20051;-69
2022/07/04 03:04:11;;;;;;;0.20;0.20;;;11.40;99.90;;;;;;5083192;28;20068;-69
2022/07/04 03:06:36;;;;;;;0.28;0.20;;;12.30;99.90;;;;;;5074177;28;20043;-69
2022/07/04 03:09:02;;;;;;;0.43;0.30;;;11.80;99.90;;;;;;5089465;28;20100;-69
2022/07/04 03:11:28;;;;;;;0.38;0.35;;;11.40;99.90;;;;;;5071053;28;20044;-69
2022/07/04 03:13:54;;;;;;;0.20;0.20;;;11.50;99.90;;;;;;5088987;28;20040;-69
2022/07/04 03:16:19;;;;;;;0.20;0.20;;;11.30;99.90;;;;;;5091136;28;20177;-69
2022/07/04 03:18:45;;;;;;;0.40;0.30;;;12.50;99.90;;;;;;5086612;28;20040;-69
2022/07/04 03:21:11;;;;;;;0.43;0.30;;;11.40;99.90;;;;;;5073889;28;20040;-69
2022/07/04 03:23:36;;;;;;;0.50;0.38;;;12.30;99.90;;;;;;5087984;28;20051;-69
2022/07/04 03:26:02;;;;;;;0.52;0.32;;;11.30;99.90;;;;;;5056183;28;20043;-69
2022/07/04 03:28:28;;;;;;;0.20;0.20;;;12.40;99.90;;;;;;5086710;28;20164;-69
2022/07/04 03:30:54;;;;;;;0.20;0.20;;;12.50;99.90;;;;;;5109057;27;20109;-69
2022/07/04 03:33:20;;;;;;;1.48;0.30;;;11.30;99.90;;;;;;5070499;28;20047;-69
2022/07/04 03:35:45;;;;;;;0.20;0.20;;;12.60;99.90;;;;;;5074175;28;20044;-69
2022/07/04 03:38:11;;;;;;;0.57;0.30;;;12.60;99.90;;;;;;5090412;28;20475;-69
2022/07/04 03:40:38;;;;;;;0.32;0.25;;;12.40;99.90;;;;;;5088963;28;20065;-69
2022/07/04 03:43:06;;;;;;;0.45;0.40;;;11.50;99.90;;;;;;5090320;28;20052;-68
2022/07/04 03:45:32;;;;;;;0.38;0.28;;;11.70;99.90;;;;;;5073547;28;20687;-69
2022/07/04 03:47:58;;;;;;;0.22;0.22;;;11.40;99.90;;;;;;5098282;28;20044;-69
2022/07/04 03:50:24;;;;;;;0.20;0.20;;;11.50;99.90;;;;;;5090051;28;20042;-69
2022/07/04 03:52:50;;;;;;;0.45;0.20;;;12.00;99.90;;;;;;5090228;28;20028;-69
2022/07/04 03:55:16;;;;;;;0.30;0.13;;;11.60;99.90;;;;;;5107558;28;20072;-69
2022/07/04 03:57:42;;;;;;;0.20;0.20;;;12.50;99.90;;;;;;5089451;28;20514;-69
2022/07/04 04:00:09;;;;;;;0.25;0.25;;;12.20;99.90;;;;;;5090112;28;20051;-69
2022/07/04 04:02:35;;;;;;;0.38;0.20;;;12.30;99.90;;;;;;5086784;28;20032;-69
2022/07/04 04:07:45;;;;;;;0.30;0.30;;;12.20;99.90;;;;;;5077248;28;19929;-69
2022/07/04 04:10:11;;;;;;;0.10;0.10;;;11.80;99.90;;;;;;5092442;28;20118;-69
2022/07/04 04:12:37;;;;;;;0.10;0.10;;;12.70;99.90;;;;;;5091261;28;20039;-69
2022/07/04 04:15:03;;;;;;;0.30;0.25;;;12.80;99.90;;;;;;5090229;28;20048;-70
2022/07/04 04:17:28;;;;;;;0.20;0.20;;;11.80;99.90;;;;;;5088849;28;20395;-69
2022/07/04 04:19:54;;;;;;;0.15;0.15;;;12.30;99.90;;;;;;5075588;27;20067;-69
2022/07/04 04:22:19;;;;;;;0.20;0.20;;;11.80;99.90;;;;;;5092308;28;20096;-69
2022/07/04 04:24:45;;;;;;;0.32;0.10;;;11.80;99.90;;;;;;5041936;28;20368;-69
2022/07/04 04:27:11;;;;;;;0.30;0.20;;;12.10;99.90;;;;;;5084854;28;20051;-69
2022/07/04 04:29:36;;;;;;;0.65;0.30;;;13.00;99.90;;;;;;5086348;28;20035;-69
2022/07/04 04:32:02;;;;;;;0.22;0.22;;;13.10;99.90;;;;;;5079249;27;20771;-68
2022/07/04 04:34:28;;;;;;;0.22;0.22;;;12.80;99.90;;;;;;5097555;28;20039;-69
2022/07/04 04:36:54;;;;;;;0.40;0.30;;;12.60;99.90;;;;;;5099151;27;20111;-69
2022/07/04 04:39:19;;;;;;;0.43;0.30;;;12.40;99.90;;;;;;5084887;28;20043;-69
2022/07/04 04:41:45;;;;;;;0.25;0.25;;;12.10;99.90;;;;;;5092172;28;20118;-68
2022/07/04 04:44:10;;;;;;;0.30;0.30;;;12.10;99.90;;;;;;5088845;28;20047;-69
2022/07/04 04:46:36;;;;;;;0.20;0.20;;;12.80;99.90;;;;;;5089803;28;20893;-68
2022/07/04 04:49:02;;;;;;;0.82;0.40;;;13.10;99.90;;;;;;5067787;28;20051;-68
2022/07/04 04:51:27;;;;;;;0.20;0.20;;;12.40;99.90;;;;;;5091790;28;20040;-68
2022/07/04 04:53:53;;;;;;;0.10;0.10;;;12.30;99.90;;;;;;5090339;28;20143;-68
2022/07/04 04:56:19;;;;;;;0.20;0.20;;;12.80;99.90;;;;;;5074612;28;20047;-68
2022/07/04 04:58:45;;;;;;;1.38;0.40;;;12.60;99.90;;;;;;5073471;28;20047;-68
2022/07/04 05:01:10;;;;;;;0.20;0.20;;;12.70;99.90;;;;;;5092053;28;20051;-68
2022/07/04 05:03:36;;;;;;;0.17;0.17;;;12.80;99.90;;;;;;5090964;28;20059;-69
2022/07/04 05:06:02;;;;;;;0.20;0.20;;;12.70;99.90;;;;;;5081329;28;20051;-68
2022/07/04 05:08:27;;;;;;;0.13;0.13;;;12.60;99.90;;;;;;5067711;28;20113;-69
2022/07/04 05:10:53;;;;;;;0.20;0.10;;;13.80;99.90;;;;;;5082855;28;20048;-68
2022/07/04 05:13:19;;;;;;;0.15;0.15;;;13.00;99.90;;;;;;5083981;28;20118;-68
2022/07/04 05:15:46;;;;;;;0.10;0.10;;;13.00;99.90;;;;;;5085014;28;20047;-68
2022/07/04 05:18:12;;;;;;;0.20;0.20;;;14.10;99.90;;;;;;5085677;28;20044;-68
2022/07/04 05:20:39;;;;;;;0.22;0.15;;;13.10;99.90;;;;;;5083607;28;20047;-68
2022/07/04 05:23:05;;;;;;;0.22;0.17;;;13.20;99.90;;;;;;5085073;28;20048;-68
2022/07/04 05:25:32;;;;;;;0.20;0.20;;;14.40;99.90;;;;;;5086662;28;20092;-68
2022/07/04 05:27:58;;;;;;;0.13;0.13;;;13.80;99.90;;;;;;5070559;28;20047;-68
2022/07/04 05:30:24;;;;;;;0.10;0.10;;;13.30;99.90;;;;;;5090837;28;20042;-68
2022/07/04 05:32:49;;;;;;;0.40;0.40;;;14.50;99.90;;;;;;5084162;28;20035;-69
2022/07/04 05:35:15;;;;;;;0.20;0.17;;;13.80;99.90;;;;;;5076502;28;20039;-69
2022/07/04 05:37:41;;;;;;;0.20;0.20;;;14.30;99.90;;;;;;5075563;28;20115;-68
2022/07/04 05:40:07;;;;;;;0.17;0.17;;;14.90;99.90;;;;;;5090407;28;20448;-68
2022/07/04 05:42:34;;;;;;;0.40;0.30;;;13.90;99.90;;;;;;5093861;28;20093;-68
2022/07/04 05:45:00;;;;;;;0.55;0.30;;;15.00;99.90;;;;;;5083286;28;20043;-69
2022/07/04 05:47:26;;;;;;;0.52;0.38;;;13.90;99.90;;;;;;5090872;28;20043;-68
2022/07/04 05:49:52;;;;;;;0.40;0.40;;;13.90;99.90;;;;;;5089379;28;20174;-68
2022/07/04 05:52:18;;;;;;;0.47;0.40;;;14.20;99.90;;;;;;5066404;28;20058;-68
2022/07/04 05:54:43;;;;;;;1.73;0.50;;;14.40;99.90;;;;;;5090654;28;20039;-68
2022/07/04 05:57:09;;;;;;;2.03;0.82;;;14.50;99.90;;;;;;5075778;28;20039;-67
2022/07/04 05:59:35;;;;;;;1.90;0.70;;;15.20;99.90;;;;;;5088481;28;20045;-67
2022/07/04 06:02:01;;;;;;;0.73;0.63;;;15.50;99.90;;;;;;5100420;28;20067;-67
2022/07/04 06:04:26;;;;;;;0.30;0.30;;;15.50;99.90;;;;;;5095993;28;20090;-67
2022/07/04 06:06:52;;;;;;;0.95;0.70;;;15.20;99.90;;;;;;5095511;28;20537;-68
2022/07/04 06:09:18;;;;;;;0.40;0.40;;;16.00;99.90;;;;;;5093352;28;20052;-67
2022/07/04 06:11:44;;;;;;;0.98;0.60;;;15.00;99.90;;;;;;5094425;28;20096;-68
2022/07/04 06:14:10;;;;;;;0.80;0.40;;;16.10;99.90;;;;;;5093291;28;20050;-67
2022/07/04 06:16:35;;;;;;;0.52;0.50;;;15.60;99.90;;;;;;5093330;28;20040;-67
2022/07/04 06:19:01;;;;;;;2.25;0.60;;;16.50;99.90;;;;;;5095715;28;20392;-68
2022/07/04 06:21:27;;;;;;;0.65;0.43;;;16.40;99.90;;;;;;5093807;28;20035;-68
2022/07/04 06:23:52;;;;;;;0.60;0.45;;;16.70;99.90;;;;;;5110285;28;20127;-68
2022/07/04 06:26:18;;;;;;;0.40;0.40;;;16.70;99.90;;;;;;5091605;28;20086;-68
2022/07/04 06:28:43;;;;;;;1.00;0.40;;;16.90;99.90;;;;;;5093007;28;20051;-68
2022/07/04 06:31:11;;;;;;;1.27;0.60;;;16.50;99.90;;;;;;5090600;28;20110;-68
2022/07/04 06:35:44;;;;;;;1.30;0.70;;;16.50;99.90;;;;;;5078215;28;20079;-68
2022/07/04 06:36:22;;;;;;;0.85;0.50;;;16.50;99.90;;;;;;5094615;28;20043;-68
2022/07/04 06:38:48;;;;;;;1.55;0.80;;;17.60;99.90;;;;;;5087899;28;20080;-68
2022/07/04 06:41:14;;;;;;;1.98;0.90;;;17.30;99.90;;;;;;5093752;28;20126;-69
2022/07/04 06:43:39;;;;;;;1.85;0.60;;;17.60;99.90;;;;;;5094309;28;20047;-68
2022/07/04 06:46:05;;;;;;;1.85;0.70;;;17.00;99.90;;;;;;5093395;28;20134;-69
2022/07/04 06:48:31;;;;;;;1.17;0.60;;;17.80;99.90;;;;;;5092866;28;20101;-68
2022/07/04 06:50:57;;;;;;;1.80;0.80;;;17.80;99.90;;;;;;5090436;28;20032;-68
2022/07/04 06:53:22;;;;;;;1.67;0.80;;;17.20;99.90;;;;;;5084278;28;20050;-68
2022/07/04 06:55:48;;;;;;;1.58;0.60;;;18.00;99.90;;;;;;5099612;28;20055;-67
2022/07/04 06:58:14;;;;;;;1.38;0.70;;;17.20;99.90;;;;;;5103964;28;20071;-67
2022/07/04 07:00:41;;;;;;;1.88;0.80;;;17.30;99.90;;;;;;5092479;28;20036;-67
2022/07/04 07:03:07;;;;;;;1.40;0.60;;;17.70;99.90;;;;;;5103817;27;20042;-67
2022/07/04 07:05:35;;;;;;;0.82;0.40;;;17.40;99.90;;;;;;5092382;28;20056;-67
2022/07/04 07:08:01;;;;;;;0.95;0.40;;;17.60;99.90;;;;;;5086174;28;20058;-67
2022/07/04 07:10:26;;;;;;;0.70;0.40;;;18.70;99.90;;;;;;5087922;28;20036;-67
2022/07/04 07:12:52;;;;;;;1.52;0.75;;;18.80;99.90;;;;;;5089165;28;20040;-68
2022/07/04 07:15:19;;;;;;;1.25;0.50;;;18.30;99.90;;;;;;5081680;28;20044;-68
2022/07/04 07:17:45;;;;;;;0.98;0.52;;;18.40;99.90;;;;;;5074473;28;20032;-68
2022/07/04 07:20:11;;;;;;;;;;;18.20;99.90;;;;;;5083962;28;20387;-68
2022/07/04 07:22:37;;;;;;;0.68;0.50;;;18.50;99.90;;;;;;5085995;28;19927;-68
2022/07/04 07:25:02;;;;;;;;;;;19.00;99.90;;;;;;5084149;28;20048;-68
2022/07/04 07:27:28;;;;;;;1.30;0.60;;;19.00;99.90;;;;;;5090103;28;19920;-68
2022/07/04 07:29:53;;;;;;;1.10;0.57;;;18.90;99.90;;;;;;5077862;28;20074;-69
2022/07/04 07:32:19;;;;;;;;;;;18.70;99.90;;;;;;5091594;28;20036;-68
2022/07/04 07:34:45;;;;;;;2.88;1.00;;;18.80;99.90;;;;;;5090440;28;20432;-68
2022/07/04 07:37:10;;;;;;;1.35;0.70;;;18.40;99.90;;;;;;5091946;28;20040;-68
2022/07/04 07:39:36;;;;;;;;;;;18.20;99.90;;;;;;5091075;28;20456;-68
2022/07/04 07:42:02;;;;;;;2.40;0.82;;;18.50;99.90;;;;;;5091147;28;19923;-68
2022/07/04 07:44:27;;;;;;;;;;;18.90;99.90;;;;;;5091256;28;20405;-68
2022/07/04 07:46:53;;;;;;;1.08;0.70;;;18.90;99.90;;;;;;5090673;28;19927;-68
2022/07/04 07:49:19;;;;;;;1.33;0.50;;;19.10;99.90;;;;;;5092476;28;20120;-68
2022/07/04 07:51:44;;;;;;;;;;;19.20;99.90;;;;;;5087683;28;20044;-68
2022/07/04 07:54:10;;;;;;;2.20;1.13;;;19.10;99.90;;;;;;5089519;28;20389;-68
2022/07/04 07:56:36;;;;;;;;;;;18.90;99.90;;;;;;5091257;28;20039;-68
2022/07/04 07:59:02;;;;;;;2.70;1.05;;;18.70;99.90;;;;;;5090365;28;19923;-68
2022/07/04 08:01:28;;;;;;;;;;;18.50;99.90;;;;;;5093975;28;20460;-68
2022/07/04 08:06:38;;;;;;;2.45;0.80;;;18.10;99.90;;;;;;5083022;28;20059;-68
2022/07/04 08:09:03;;;;;;;;;;;18.20;99.90;;;;;;5090491;28;20044;-68
2022/07/04 08:11:29;;;;;;;2.53;0.85;;;17.40;99.90;;;;;;5090191;28;19984;-68
2022/07/04 08:13:55;;;;;;;;;;;17.30;99.90;;;;;;5090488;28;20044;-68
2022/07/04 08:16:20;;;;;;;2.08;0.90;;;17.40;99.90;;;;;;5091254;28;19916;-68
2022/07/04 08:18:46;;;;;;;;;;;18.10;99.90;;;;;;5100119;28;20051;-74
2022/07/04 08:21:13;;;;;;;2.97;1.10;;;17.10;99.90;;;;;;5073002;28;19994;-75
2022/07/04 08:23:40;;;;;;;3.13;1.35;;;18.00;99.90;;;;;;5089888;28;20174;-74
2022/07/04 08:26:05;;;;;;;2.63;1.10;;;17.30;99.90;;;;;;5084958;28;20036;-73
2022/07/04 08:28:31;;;;;;;;;;;17.70;99.90;;;;;;5082723;28;20656;-73
2022/07/04 08:30:58;;;;;;;1.40;0.70;;;18.10;99.90;;;;;;5082588;28;20002;-73
2022/07/04 08:33:24;;;;;;;2.28;0.88;;;18.40;99.90;;;;;;5087742;28;20044;-74
2022/07/04 08:35:50;;;;;;;;;;;18.30;99.90;;;;;;5082829;28;20554;-74
2022/07/04 08:38:16;;;;;;;2.55;1.25;;;17.70;99.90;;;;;;5086546;28;20010;-75
2022/07/04 08:40:42;;;;;;;2.13;1.20;;;18.10;99.90;;;;;;5082598;28;20076;-75
2022/07/04 08:43:10;;;;;;;;;;;17.60;99.90;;;;;;5072855;28;20128;-75
2022/07/04 08:45:36;;;;;;;3.00;0.90;;;17.70;99.90;;;;;;5085137;28;19915;-75
2022/07/04 08:48:02;;;;;;;;;;;17.70;99.90;;;;;;5090614;28;20074;-75
2022/07/04 08:50:38;;;;;;;1.60;0.77;;;18.30;99.90;;;;;;5089218;28;19927;-75
2022/07/04 08:53:12;;;;;;;1.20;0.60;;;17.80;99.90;;;;;;5089228;28;20070;-75
2022/07/04 08:58:25;;;;;;;0.95;0.50;;;18.50;99.90;;;;;;5089344;28;20101;-75
2022/07/04 09:00:55;;;;;;;1.75;0.80;;;18.20;99.90;;;;;;5094182;28;20043;-74
2022/07/04 09:03:21;;;;;;;1.38;0.60;;;19.00;99.90;;;;;;5095253;28;20044;-75
2022/07/04 09:05:47;;;;;;;;;;;19.40;99.90;;;;;;5062598;28;20121;-74
2022/07/04 09:08:13;;;;;;;1.17;0.60;;;19.90;99.90;;;;;;5076501;28;19966;-74
2022/07/04 09:10:38;;;;;;;;;;;20.00;99.90;;;;;;5068389;28;20491;-74
2022/07/04 09:13:06;;;;;;;1.38;0.57;;;20.20;99.90;;;;;;5088220;28;19919;-74
2022/07/04 09:15:32;;;;;;;3.80;0.80;;;20.60;99.90;;;;;;5089053;28;20040;-74
2022/07/04 09:17:59;;;;;;;1.17;0.60;;;20.40;99.90;;;;;;5086413;28;20329;-74
2022/07/04 09:20:27;;;;;;;1.23;0.60;;;20.20;99.90;;;;;;5083859;28;20036;-75
2022/07/04 09:22:54;;;;;;;1.75;0.60;;;20.00;99.90;;;;;;5059302;28;20508;-74
2022/07/04 09:25:21;;;;;;;2.10;0.70;;;20.10;99.90;;;;;;5080253;28;20124;-75
2022/07/04 09:27:49;;;;;;;1.50;0.70;;;20.40;99.90;;;;;;5089489;28;20043;-75
2022/07/04 09:30:17;;;;;;;2.15;0.70;;;20.60;99.90;;;;;;5108993;28;20093;-75
2022/07/04 09:32:53;;;;;;;2.63;0.80;;;20.60;99.90;;;;;;5077951;28;20051;-75
2022/07/04 09:35:21;;;;;;;1.95;0.70;;;20.50;99.10;;;;;;5060023;28;20056;-75
2022/07/04 09:37:52;;;;;;;1.77;0.77;;;20.30;99.00;;;;;;5109294;28;20063;-76
2022/07/04 09:40:27;;;;;;;1.77;0.70;;;19.80;99.50;;;;;;5082578;28;20483;-75
2022/07/04 09:42:54;;;;;;;1.70;0.57;;;19.60;99.90;;;;;;5109131;28;20052;-75
2022/07/04 09:45:23;;;;;;;1.27;0.73;;;19.50;99.90;;;;;;5089026;28;20118;-74
2022/07/04 09:47:50;;;;;;;2.08;0.60;;;19.40;99.90;;;;;;5080557;28;20344;-74
2022/07/04 09:50:18;;;;;;;1.75;0.80;;;19.70;99.90;;;;;;5090592;28;20078;-75
2022/07/04 09:52:53;;;;;;;1.15;0.70;;;19.80;99.90;;;;;;5109599;28;20067;-75
2022/07/04 09:55:24;;;;;;;0.93;0.50;;;19.80;99.90;;;;;;5088155;28;20059;-74
2022/07/04 09:57:51;;;;;;;1.63;0.52;;;19.80;99.90;;;;;;5091084;28;20036;-75
2022/07/04 10:00:38;;;;;;;1.90;0.60;;;19.80;99.90;;;;;;5088422;28;20105;-74
2022/07/04 10:03:26;;;;;;;1.30;0.55;;;20.30;99.90;;;;;;5088187;28;20388;-75
2022/07/04 10:06:04;;;;;;;0.55;0.50;;;20.30;99.90;;;;;;5102398;28;20048;-75
2022/07/04 10:08:30;;;;;;;0.60;0.50;;;20.60;99.90;;;;;;5088585;28;20047;-75
2022/07/04 10:10:57;;;;;;;2.00;0.50;;;20.70;99.90;;;;;;5076673;28;20046;-75
2022/07/04 10:13:23;;;;;;;3.25;0.70;;;21.10;99.60;;;;;;5071748;28;20610;-75
2022/07/04 10:15:49;;;;;;;2.00;0.75;;;21.20;99.00;;;;;;5102456;28;20123;-75
2022/07/04 10:18:18;;;;;;;1.13;0.68;;;21.20;98.70;;;;;;5090954;28;20039;-75
2022/07/04 10:20:45;;;;;;;1.70;0.73;;;20.80;98.80;;;;;;5100062;28;20048;-74
2022/07/04 10:23:11;;;;;;;0.95;0.50;;;21.10;99.90;;;;;;5103556;28;20068;-75
2022/07/04 10:25:37;;;;;;;0.63;0.50;;;21.30;96.90;;;;;;5090183;28;20146;-74
2022/07/04 10:28:04;;;;;;;1.08;0.45;;;21.50;97.50;;;;;;5091741;28;20093;-74
2022/07/04 10:30:33;;;;;;;2.97;0.80;;;21.70;97.10;;;;;;5092243;28;20442;-74
2022/07/04 10:33:04;;;;;;;1.73;0.68;;;21.70;96.50;;;;;;5091760;28;20051;-74
2022/07/04 10:35:57;;;;;;;0.35;0.32;;;21.70;96.60;;;;;;5103165;28;20044;-74
2022/07/04 10:38:30;;;;;;;1.15;0.50;;;22.30;97.10;;;;;;5090138;28;20043;-75
2022/07/04 10:40:59;;;;;;;2.72;0.60;;;22.40;95.70;;;;;;5092348;28;20043;-75
2022/07/04 10:43:37;;;;;;;1.08;0.70;;;22.40;95.20;;;;;;5091803;28;20047;-75
2022/07/04 10:46:05;;;;;;;1.73;0.80;;;22.30;94.60;;;;;;5091917;28;20505;-74
2022/07/04 10:48:31;;;;;;;1.30;0.47;;;22.10;95.30;;;;;;5070548;28;20086;-75
2022/07/04 10:51:02;;;;;;;1.40;0.70;;;22.30;95.20;;;;;;5078197;28;20041;-75
2022/07/04 10:53:29;;;;;;;1.13;0.52;;;21.50;93.40;;;;;;5115031;27;20044;-75
2022/07/04 10:56:15;;;;;;;1.40;0.60;;;21.20;94.40;;;;;;5080551;28;20196;-75
2022/07/04 10:58:42;;;;;;;1.08;0.30;;;21.50;94.60;;;;;;5091835;28;20036;-76
2022/07/04 11:01:15;;;;;;;1.67;0.55;;;21.50;94.80;;;;;;5102097;28;20043;-76
2022/07/04 11:03:45;;;;;;;1.73;0.50;;;21.40;94.40;;;;;;5091143;28;20062;-75
2022/07/04 11:06:33;;;;;;;2.03;0.70;;;21.60;94.40;;;;;;5100363;28;20130;-75
2022/07/04 11:09:18;;;;;;;2.30;0.60;;;21.90;94.50;;;;;;5074560;28;20162;-75
2022/07/04 11:11:49;;;;;;;0.90;0.50;;;21.90;94.20;;;;;;5091584;28;20055;-75
2022/07/04 11:14:30;;;;;;;1.42;0.75;;;21.50;95.00;;;;;;5091479;28;20062;-75
2022/07/04 11:16:55;;;;;;;1.23;0.60;;;21.30;95.10;;;;;;5111678;28;20071;-75
2022/07/04 11:19:22;;;;;;;1.70;0.60;;;21.70;95.00;;;;;;5094073;28;20087;-75
2022/07/04 11:21:48;;;;;;;1.00;0.60;;;21.90;94.90;;;;;;5111498;28;20471;-76
2022/07/04 11:24:13;;;;;;;0.93;0.50;;;22.20;94.20;;;;;;5089557;28;20075;-76
2022/07/04 11:26:39;;;;;;;1.60;0.52;;;22.20;93.60;;;;;;5081872;28;20078;-75
2022/07/04 11:29:05;;;;;;;1.45;0.55;;;22.00;93.30;;;;;;5102710;28;20487;-75
2022/07/04 11:31:42;;;;;;;1.73;0.47;;;22.10;94.00;;;;;;5111217;28;20067;-75
2022/07/04 11:34:08;;;;;;;3.92;0.63;;;22.00;93.10;;;;;;5099394;28;20117;-75
2022/07/04 11:36:34;;;;;;;1.38;0.60;;;22.10;93.50;;;;;;5101996;28;20484;-75
2022/07/04 11:39:06;;;;;;;0.88;0.45;;;21.70;93.50;;;;;;5100183;28;20035;-75
2022/07/04 11:47:15;;;;;;;1.50;0.40;;;21.90;93.60;;;;;;5090766;28;20132;-76
2022/07/04 11:49:43;;;;;;;1.00;0.60;;;22.10;93.60;;;;;;5104109;28;20051;-69
2022/07/04 11:52:09;;;;;;;1.45;0.60;;;22.10;92.40;;;;;;5103624;28;20114;-69
2022/07/04 11:54:35;;;;;;;1.75;0.70;;;22.40;93.00;;;;;;5090835;28;20094;-69
2022/07/04 11:57:12;;;;;;;2.72;0.40;;;22.20;92.70;;;;;;5090327;28;20491;-68
2022/07/04 11:59:38;;;;;;;0.85;0.52;;;22.10;92.50;;;;;;5102118;28;20051;-69
2022/07/04 12:02:15;;;;;;;1.23;0.60;;;22.10;92.60;;;;;;5090203;28;20047;-69
2022/07/04 12:04:41;;;;;;;1.27;0.50;;;22.20;92.30;;;;;;5110071;28;20039;-69
2022/07/04 12:07:16;;;;;;;2.30;0.65;;;22.30;92.60;;;;;;5088236;28;20048;-69
2022/07/04 12:09:44;;;;;;;0.95;0.40;;;22.30;92.10;;;;;;5093622;28;20050;-69
2022/07/04 12:12:11;;;;;;;0.68;0.30;;;22.50;91.80;;;;;;5091256;28;20044;-69
2022/07/04 12:14:37;;;;;;;1.27;0.40;;;22.70;92.50;;;;;;5091444;28;20115;-69
2022/07/04 12:17:14;;;;;;;2.55;0.60;;;22.50;92.10;;;;;;5104918;28;20051;-69
2022/07/04 12:19:53;;;;;;;1.13;0.60;;;22.30;92.40;;;;;;5101639;28;20048;-68
2022/07/04 12:22:30;;;;;;;3.03;0.52;;;22.70;92.10;;;;;;5078784;28;20570;-69
2022/07/04 12:24:56;;;;;;;2.05;0.52;;;22.50;91.70;;;;;;5104561;28;20046;-71
2022/07/04 12:27:26;;;;;;;1.00;0.50;;;22.40;92.10;;;;;;5094409;28;20040;-68
2022/07/04 12:29:54;;;;;;;1.42;0.50;;;22.50;92.50;;;;;;5108255;28;20401;-69
2022/07/04 12:32:20;;;;;;;2.47;0.68;;;22.50;92.20;;;;;;5093344;28;20048;-70
2022/07/04 12:34:46;;;;;;;1.73;0.60;;;22.20;92.00;;;;;;5101134;28;20035;-69
2022/07/04 12:37:14;;;;;;;1.73;0.70;;;22.30;92.80;;;;;;5082131;28;20059;-69
2022/07/04 12:39:43;;;;;;;0.73;0.45;;;21.90;92.60;;;;;;5085012;28;20055;-68
2022/07/04 12:42:19;;;;;;;1.45;0.60;;;21.80;93.50;;;;;;5085689;28;20044;-69
2022/07/04 12:44:49;;;;;;;;;;;22.20;93.00;;;;;;5108369;28;20039;-69
2022/07/04 12:47:15;;;;;;;1.52;0.77;;;22.00;92.50;;;;;;5064075;28;20377;-69
2022/07/04 12:49:45;;;;;;;2.72;0.80;;;22.30;93.50;;;;;;5079423;28;20040;-69
2022/07/04 12:52:16;;;;;;;2.22;0.55;;;22.10;93.20;;;;;;5084521;28;20071;-69
2022/07/04 12:54:46;;;;;;;2.40;0.60;;;21.70;93.00;;;;;;5094723;28;20056;-69
2022/07/04 12:57:18;;;;;;;1.40;0.63;;;21.60;93.90;;;;;;5095117;28;20043;-69
2022/07/04 12:59:44;;;;;;;0.90;0.60;;;21.60;93.20;;;;;;5077421;28;20048;-69
2022/07/04 13:02:14;;;;;;;1.70;0.55;;;21.40;93.90;;;;;;5102228;28;20573;-69
2022/07/04 13:04:40;;;;;;;2.00;0.50;;;22.00;93.30;;;;;;5072677;28;20040;-69
2022/07/04 13:07:14;;;;;;;2.40;0.68;;;22.20;92.40;;;;;;5091519;28;20059;-69